Time;durP1;ratioP1;P1;durP2;ratioP2;P2;SDS_P1;SDS_P2;PMS_P1;PMS_P2;Temp;Humidity;BMP_temperature;BMP_pressure;BME280_temperature;BME280_humidity;BME280_pressure;Samples;Min_cycle;Max_cycle;Signal;HPM_P1;HPM_P2
2022/12/20 00:01:15;;;;;;;6.63;3.80;;;;;;;;;;5051208;28;20041;-79
2022/12/20 00:03:41;;;;;;;6.90;4.22;;;;;;;;;;5053092;28;20056;-79
2022/12/20 00:06:07;;;;;;;7.00;4.25;;;;;;;;;;5055108;28;20049;-79
2022/12/20 00:08:35;;;;;;;7.65;3.85;;;;;;;;;;5054737;28;20033;-78
2022/12/20 00:11:02;;;;;;;5.90;3.72;;;;;;;;;;5055090;28;20079;-79
2022/12/20 00:13:28;;;;;;;8.23;3.95;;;;;;;;;;5054627;28;20041;-78
2022/12/20 00:16:11;;;;;;;10.57;4.00;;;;;;;;;;5054717;28;20387;-78
2022/12/20 00:18:38;;;;;;;8.50;4.32;;;;;;;;;;5054258;28;20075;-78
2022/12/20 00:21:04;;;;;;;7.32;3.95;;;;;;;;;;5054750;28;20045;-79
2022/12/20 00:23:31;;;;;;;9.43;4.25;;;;;;;;;;5054316;28;20525;-79
2022/12/20 00:26:04;;;;;;;10.68;4.82;;;;;;;;;;5053969;28;20056;-79
2022/12/20 00:28:30;;;;;;;7.53;3.95;;;;;;;;;;5037633;28;20037;-78
2022/12/20 00:30:56;;;;;;;6.10;4.15;;;;;;;;;;5037362;28;20063;-79
2022/12/20 00:33:23;;;;;;;6.75;3.95;;;;;;;;;;5054294;28;20037;-79
2022/12/20 00:35:49;;;;;;;8.20;3.90;;;;;;;;;;5054284;28;20534;-79
2022/12/20 00:38:15;;;;;;;7.50;4.20;;;;;;;;;;5054474;28;20382;-79
2022/12/20 00:40:41;;;;;;;6.57;3.85;;;;;;;;;;5054098;28;20489;-79
2022/12/20 00:43:07;;;;;;;6.82;3.80;;;;;;;;;;5037627;28;20052;-78
2022/12/20 00:45:33;;;;;;;6.07;3.72;;;;;;;;;;5034160;28;20514;-79
2022/12/20 00:47:59;;;;;;;8.85;3.85;;;;;;;;;;5051416;28;20067;-79
2022/12/20 00:50:25;;;;;;;7.25;3.40;;;;;;;;;;5054096;28;20398;-79
2022/12/20 00:52:51;;;;;;;5.00;3.53;;;;;;;;;;5054012;28;20506;-78
2022/12/20 00:55:17;;;;;;;7.40;3.80;;;;;;;;;;5053935;28;20497;-78
2022/12/20 00:57:43;;;;;;;7.65;3.60;;;;;;;;;;5053508;28;20120;-78
2022/12/20 01:00:10;;;;;;;7.55;3.50;;;;;;;;;;5053595;28;20056;-79
2022/12/20 01:02:36;;;;;;;7.60;3.53;;;;;;;;;;5054116;28;20048;-79
2022/12/20 01:05:02;;;;;;;6.32;3.70;;;;;;;;;;5053335;28;20045;-79
2022/12/20 01:07:28;;;;;;;7.40;3.70;;;;;;;;;;5053560;28;20036;-78
2022/12/20 01:09:54;;;;;;;6.72;3.28;;;;;;;;;;5053328;28;20098;-78
2022/12/20 01:12:21;;;;;;;8.88;3.60;;;;;;;;;;5053380;28;20099;-78
2022/12/20 01:14:47;;;;;;;6.30;3.58;;;;;;;;;;5052779;28;20398;-79
2022/12/20 01:17:14;;;;;;;6.10;3.10;;;;;;;;;;5053336;28;20041;-78
2022/12/20 01:19:40;;;;;;;5.55;3.40;;;;;;;;;;5053418;28;20045;-78
2022/12/20 01:22:06;;;;;;;7.15;3.63;;;;;;;;;;5053120;28;20044;-78
2022/12/20 01:24:32;;;;;;;6.75;3.45;;;;;;;;;;5036592;28;20040;-78
2022/12/20 01:26:58;;;;;;;10.63;3.70;;;;;;;;;;5053027;28;20151;-79
2022/12/20 01:29:24;;;;;;;5.68;3.30;;;;;;;;;;5053364;28;20394;-78
2022/12/20 01:31:50;;;;;;;7.80;3.25;;;;;;;;;;5053033;28;20044;-78
2022/12/20 01:34:16;;;;;;;5.55;3.40;;;;;;;;;;5052970;28;20037;-78
2022/12/20 01:36:43;;;;;;;7.63;3.60;;;;;;;;;;5052918;28;20049;-78
2022/12/20 01:39:15;;;;;;;6.63;3.42;;;;;;;;;;5052755;28;20066;-78
2022/12/20 01:41:42;;;;;;;5.85;3.60;;;;;;;;;;5052831;28;20048;-78
2022/12/20 01:44:17;;;;;;;9.90;3.20;;;;;;;;;;5036391;28;20123;-78
2022/12/20 01:46:44;;;;;;;7.53;3.50;;;;;;;;;;5052613;28;20041;-79
2022/12/20 01:49:16;;;;;;;5.97;3.20;;;;;;;;;;5052696;28;20389;-78
2022/12/20 01:52:05;;;;;;;5.90;3.22;;;;;;;;;;5052715;28;20049;-79
2022/12/20 01:54:33;;;;;;;5.45;3.20;;;;;;;;;;5033617;28;20126;-79
2022/12/20 01:57:08;;;;;;;5.03;3.40;;;;;;;;;;5052648;28;20056;-79
2022/12/20 01:59:37;;;;;;;8.25;3.40;;;;;;;;;;5052833;28;20041;-79
2022/12/20 02:02:06;;;;;;;5.97;3.72;;;;;;;;;;5052195;28;20072;-78
2022/12/20 02:04:32;;;;;;;8.73;3.40;;;;;;;;;;5052399;28;20127;-78
2022/12/20 02:06:59;;;;;;;5.78;3.20;;;;;;;;;;5052155;28;20037;-78
2022/12/20 02:09:26;;;;;;;5.95;3.45;;;;;;;;;;5052365;28;20037;-78
2022/12/20 02:12:27;;;;;;;5.43;3.03;;;;;;;;;;5052158;28;20040;-79
2022/12/20 02:15:11;;;;;;;5.97;3.25;;;;;;;;;;5016161;28;20060;-78
2022/12/20 02:17:56;;;;;;;5.53;3.50;;;;;;;;;;5082471;28;20049;-78
2022/12/20 02:20:35;;;;;;;7.20;3.55;;;;;;;;;;5041009;28;20041;-78
2022/12/20 02:23:11;;;;;;;6.47;3.58;;;;;;;;;;5051873;28;20091;-78
2022/12/20 02:25:51;;;;;;;7.22;3.40;;;;;;;;;;5051907;28;20107;-78
2022/12/20 02:28:36;;;;;;;8.60;3.83;;;;;;;;;;5053359;28;20076;-78
2022/12/20 02:31:04;;;;;;;6.40;3.75;;;;;;;;;;5053025;28;20447;-78
2022/12/20 02:33:30;;;;;;;6.93;4.10;;;;;;;;;;5051874;28;20041;-78
2022/12/20 02:35:57;;;;;;;7.60;3.67;;;;;;;;;;5051453;28;20049;-78
2022/12/20 02:38:36;;;;;;;7.20;3.97;;;;;;;;;;5051506;28;20051;-78
2022/12/20 02:41:02;;;;;;;9.70;4.25;;;;;;;;;;5051476;28;20404;-78
2022/12/20 02:46:15;;;;;;;7.65;4.40;;;;;;;;;;5085058;28;20053;-79
2022/12/20 02:48:42;;;;;;;7.93;4.18;;;;;;;;;;5051538;28;20515;-78
2022/12/20 02:51:08;;;;;;;7.07;3.90;;;;;;;;;;5068349;28;20127;-78
2022/12/20 02:53:35;;;;;;;8.75;4.38;;;;;;;;;;5051560;28;20055;-78
2022/12/20 02:56:22;;;;;;;7.18;4.28;;;;;;;;;;5052660;28;20386;-78
2022/12/20 02:58:51;;;;;;;7.53;4.15;;;;;;;;;;5035117;28;20044;-79
2022/12/20 03:01:21;;;;;;;7.45;4.25;;;;;;;;;;5050788;28;20080;-79
2022/12/20 03:03:47;;;;;;;7.88;4.20;;;;;;;;;;5050148;28;20120;-78
2022/12/20 03:06:13;;;;;;;9.05;4.80;;;;;;;;;;5045182;28;20098;-79
2022/12/20 03:08:40;;;;;;;9.13;4.60;;;;;;;;;;5051374;28;20037;-79
2022/12/20 03:11:06;;;;;;;6.60;4.70;;;;;;;;;;5057552;28;20048;-79
2022/12/20 03:13:32;;;;;;;8.15;4.63;;;;;;;;;;5051405;28;20060;-78
2022/12/20 03:15:58;;;;;;;9.43;4.40;;;;;;;;;;5051255;28;20049;-79
2022/12/20 03:18:24;;;;;;;6.88;4.40;;;;;;;;;;5068146;28;20076;-79
2022/12/20 03:20:50;;;;;;;7.18;4.57;;;;;;;;;;5051607;28;20052;-79
2022/12/20 03:23:16;;;;;;;9.50;5.28;;;;;;;;;;5050703;28;20056;-78
2022/12/20 03:25:42;;;;;;;9.60;4.47;;;;;;;;;;5051116;28;20049;-79
2022/12/20 03:28:08;;;;;;;8.30;4.70;;;;;;;;;;5034276;28;20036;-78
2022/12/20 03:30:34;;;;;;;8.20;4.50;;;;;;;;;;5051247;28;20041;-78
2022/12/20 03:33:00;;;;;;;10.85;5.05;;;;;;;;;;5051078;28;20049;-79
2022/12/20 03:35:26;;;;;;;6.78;4.68;;;;;;;;;;5051194;28;20040;-79
2022/12/20 03:37:52;;;;;;;9.30;5.03;;;;;;;;;;5053941;28;20057;-78
2022/12/20 03:40:18;;;;;;;9.10;4.88;;;;;;;;;;5055013;28;20119;-80
2022/12/20 03:42:44;;;;;;;9.77;5.13;;;;;;;;;;5055085;28;20123;-79
2022/12/20 03:45:10;;;;;;;8.00;4.88;;;;;;;;;;5055037;28;20401;-80
2022/12/20 03:47:36;;;;;;;9.68;5.00;;;;;;;;;;5054876;28;20036;-78
2022/12/20 03:50:03;;;;;;;10.50;4.85;;;;;;;;;;5038108;28;20120;-78
2022/12/20 03:52:29;;;;;;;9.30;5.57;;;;;;;;;;5055002;28;20033;-78
2022/12/20 03:54:55;;;;;;;8.70;4.90;;;;;;;;;;5054903;28;20158;-79
2022/12/20 03:57:21;;;;;;;9.52;5.90;;;;;;;;;;5055052;28;20547;-79
2022/12/20 03:59:47;;;;;;;10.43;4.85;;;;;;;;;;5055175;28;20037;-78
2022/12/20 04:02:14;;;;;;;8.05;5.03;;;;;;;;;;5055040;28;20398;-79
2022/12/20 04:04:40;;;;;;;8.20;4.63;;;;;;;;;;5054541;28;20064;-78
2022/12/20 04:07:06;;;;;;;10.95;5.00;;;;;;;;;;5055526;28;20501;-78
2022/12/20 04:09:33;;;;;;;11.15;5.63;;;;;;;;;;5056022;28;20044;-79
2022/12/20 04:11:59;;;;;;;9.88;5.32;;;;;;;;;;5054533;28;20120;-78
2022/12/20 04:14:25;;;;;;;10.75;5.20;;;;;;;;;;5071250;28;20459;-78
2022/12/20 04:16:51;;;;;;;8.65;5.15;;;;;;;;;;5054798;28;20445;-79
2022/12/20 04:19:17;;;;;;;9.25;5.38;;;;;;;;;;5054481;28;20413;-79
2022/12/20 04:21:43;;;;;;;10.02;5.07;;;;;;;;;;5054173;28;20041;-78
2022/12/20 04:24:09;;;;;;;9.68;5.15;;;;;;;;;;5054522;28;20049;-79
2022/12/20 04:26:36;;;;;;;9.55;5.53;;;;;;;;;;5054142;28;20068;-78
2022/12/20 04:29:02;;;;;;;7.22;5.32;;;;;;;;;;5044995;28;20042;-79
2022/12/20 04:31:28;;;;;;;9.45;5.20;;;;;;;;;;5049473;28;20036;-78
2022/12/20 04:33:54;;;;;;;8.85;5.35;;;;;;;;;;5047362;28;20447;-78
2022/12/20 04:36:20;;;;;;;9.27;5.30;;;;;;;;;;5030703;28;20063;-78
2022/12/20 04:38:46;;;;;;;7.93;4.65;;;;;;;;;;5054148;28;20045;-79
2022/12/20 04:41:21;;;;;;;9.30;4.80;;;;;;;;;;5053705;28;20040;-78
2022/12/20 04:43:51;;;;;;;10.40;4.85;;;;;;;;;;5037449;28;20041;-79
2022/12/20 04:46:17;;;;;;;10.52;4.75;;;;;;;;;;5053626;28;20041;-78
2022/12/20 04:48:43;;;;;;;9.98;4.80;;;;;;;;;;5053083;28;20120;-78
2022/12/20 04:51:09;;;;;;;21.20;5.03;;;;;;;;;;5053650;28;20102;-79
2022/12/20 04:53:47;;;;;;;8.25;4.53;;;;;;;;;;5053666;28;20041;-79
2022/12/20 04:56:21;;;;;;;8.48;4.10;;;;;;;;;;5053539;28;20052;-79
2022/12/20 04:58:48;;;;;;;8.93;4.40;;;;;;;;;;5053704;28;20553;-78
2022/12/20 05:01:14;;;;;;;7.72;3.92;;;;;;;;;;5053008;28;20482;-78
2022/12/20 05:03:40;;;;;;;7.70;3.83;;;;;;;;;;5053380;28;20045;-78
2022/12/20 05:06:06;;;;;;;8.13;4.30;;;;;;;;;;5053002;28;20045;-78
2022/12/20 05:08:33;;;;;;;7.72;4.15;;;;;;;;;;5053521;28;20112;-79
2022/12/20 05:10:59;;;;;;;9.63;4.07;;;;;;;;;;5053737;28;20466;-79
2022/12/20 05:13:25;;;;;;;7.45;4.05;;;;;;;;;;5053503;28;20505;-78
2022/12/20 05:15:54;;;;;;;7.50;4.13;;;;;;;;;;5053485;28;20154;-78
2022/12/20 05:18:21;;;;;;;8.38;3.70;;;;;;;;;;5053359;28;20075;-78
2022/12/20 05:20:47;;;;;;;8.63;4.35;;;;;;;;;;5036871;28;20493;-78
2022/12/20 05:26:16;;;;;;;7.07;3.85;;;;;;;;;;5053159;28;20102;-78
2022/12/20 05:28:42;;;;;;;5.55;3.35;;;;;;;;;;5039762;28;20451;-78
2022/12/20 05:31:08;;;;;;;6.30;3.72;;;;;;;;;;5054356;28;20045;-80
2022/12/20 05:33:34;;;;;;;7.60;3.60;;;;;;;;;;5054648;28;20037;-78
2022/12/20 05:36:00;;;;;;;6.70;3.70;;;;;;;;;;5052971;28;20041;-80
2022/12/20 05:38:27;;;;;;;8.75;3.55;;;;;;;;;;5052858;28;20040;-78
2022/12/20 05:40:53;;;;;;;6.10;3.20;;;;;;;;;;5052876;28;20045;-78
2022/12/20 05:43:19;;;;;;;6.22;3.85;;;;;;;;;;5052738;28;20040;-78
2022/12/20 05:45:47;;;;;;;8.13;3.22;;;;;;;;;;5052928;28;20083;-78
2022/12/20 05:48:13;;;;;;;5.35;3.50;;;;;;;;;;5036025;28;20118;-78
2022/12/20 05:50:39;;;;;;;6.60;3.30;;;;;;;;;;5036003;28;20040;-78
2022/12/20 05:53:05;;;;;;;8.05;3.63;;;;;;;;;;5054024;28;20482;-78
2022/12/20 05:55:31;;;;;;;8.00;3.40;;;;;;;;;;5052580;28;20048;-77
2022/12/20 05:57:57;;;;;;;6.65;3.75;;;;;;;;;;5052868;28;20124;-78
2022/12/20 06:00:23;;;;;;;6.70;3.38;;;;;;;;;;5052151;28;20048;-79
2022/12/20 06:02:49;;;;;;;8.18;3.47;;;;;;;;;;5053055;28;20048;-78
2022/12/20 06:05:15;;;;;;;7.82;3.40;;;;;;;;;;5052171;28;20052;-78
2022/12/20 06:07:42;;;;;;;5.30;3.38;;;;;;;;;;5039050;28;20517;-78
2022/12/20 06:10:10;;;;;;;5.82;3.42;;;;;;;;;;5052493;28;20045;-78
2022/12/20 06:12:36;;;;;;;6.20;3.85;;;;;;;;;;5035517;28;20037;-78
2022/12/20 06:15:02;;;;;;;5.93;3.90;;;;;;;;;;5052151;28;20037;-79
2022/12/20 06:17:28;;;;;;;7.72;3.75;;;;;;;;;;5051831;28;20049;-78
2022/12/20 06:19:54;;;;;;;8.07;4.60;;;;;;;;;;5051964;28;20033;-78
2022/12/20 06:22:20;;;;;;;8.63;4.68;;;;;;;;;;5051741;28;20056;-78
2022/12/20 06:24:46;;;;;;;7.28;4.47;;;;;;;;;;5052139;28;20037;-78
2022/12/20 06:27:12;;;;;;;10.57;4.50;;;;;;;;;;5052118;28;20486;-78
2022/12/20 06:29:38;;;;;;;8.57;5.05;;;;;;;;;;5035455;28;20124;-78
2022/12/20 06:32:04;;;;;;;8.18;4.85;;;;;;;;;;5051964;28;20094;-78
2022/12/20 06:34:31;;;;;;;8.68;4.93;;;;;;;;;;5085230;28;20083;-79
2022/12/20 06:36:57;;;;;;;8.35;5.07;;;;;;;;;;5051334;28;20033;-78
2022/12/20 06:39:23;;;;;;;9.02;4.82;;;;;;;;;;5051273;28;20051;-78
2022/12/20 06:41:49;;;;;;;11.90;5.70;;;;;;;;;;5051519;28;20063;-78
2022/12/20 06:44:15;;;;;;;8.43;5.20;;;;;;;;;;5051749;28;20048;-79
2022/12/20 06:46:41;;;;;;;11.77;5.47;;;;;;;;;;5051231;28;20044;-78
2022/12/20 06:49:07;;;;;;;8.98;5.90;;;;;;;;;;5068231;28;20048;-78
2022/12/20 06:51:33;;;;;;;9.73;5.68;;;;;;;;;;5051754;28;20552;-78
2022/12/20 06:53:59;;;;;;;11.10;5.80;;;;;;;;;;5051611;28;20397;-78
2022/12/20 06:56:25;;;;;;;11.40;5.70;;;;;;;;;;5034891;28;20494;-78
2022/12/20 06:58:51;;;;;;;10.13;6.10;;;;;;;;;;5035344;28;20067;-79
2022/12/20 07:01:17;;;;;;;10.27;6.10;;;;;;;;;;5051697;28;20540;-79
2022/12/20 07:03:44;;;;;;;11.63;6.50;;;;;;;;;;5034923;28;20494;-78
2022/12/20 07:06:10;;;;;;;12.65;6.15;;;;;;;;;;5034930;28;20053;-79
2022/12/20 07:08:36;;;;;;;9.65;5.75;;;;;;;;;;5052273;28;20116;-79
2022/12/20 07:11:06;;;;;;;10.40;5.95;;;;;;;;;;5034992;28;20044;-79
2022/12/20 07:13:32;;;;;;;13.32;7.00;;;;;;;;;;5057621;28;20040;-78
2022/12/20 07:16:02;;;;;;;14.13;7.13;;;;;;;;;;5058275;28;20520;-79
2022/12/20 07:18:28;;;;;;;13.27;6.80;;;;;;;;;;5044602;28;20512;-78
2022/12/20 07:20:58;;;;;;;15.65;6.18;;;;;;;;;;5059403;28;20036;-79
2022/12/20 07:23:24;;;;;;;10.02;6.63;;;;;;;;;;5058833;28;20053;-79
2022/12/20 07:25:55;;;;;;;11.77;6.72;;;;;;;;;;5057788;28;20073;-79
2022/12/20 07:28:21;;;;;;;12.13;6.70;;;;;;;;;;5041529;28;20044;-79
2022/12/20 07:30:47;;;;;;;10.52;6.68;;;;;;;;;;5057850;28;20064;-79
2022/12/20 07:33:13;;;;;;;11.10;6.95;;;;;;;;;;5057883;28;20072;-79
2022/12/20 07:35:39;;;;;;;12.70;7.05;;;;;;;;;;5057836;28;20076;-79
2022/12/20 07:38:05;;;;;;;10.73;7.15;;;;;;;;;;5072130;28;20390;-79
2022/12/20 07:40:31;;;;;;;11.63;7.35;;;;;;;;;;5057665;28;20041;-79
2022/12/20 07:42:57;;;;;;;11.68;6.88;;;;;;;;;;5058057;28;20072;-79
2022/12/20 07:45:23;;;;;;;10.27;6.90;;;;;;;;;;5059109;28;20037;-77
2022/12/20 07:47:49;;;;;;;13.45;7.78;;;;;;;;;;5057611;28;20059;-79
2022/12/20 07:50:15;;;;;;;10.00;7.30;;;;;;;;;;5091291;28;20131;-79
2022/12/20 07:52:44;;;;;;;11.57;7.70;;;;;;;;;;5058177;28;20067;-79
2022/12/20 07:55:10;;;;;;;11.93;7.78;;;;;;;;;;5057786;28;20489;-79
2022/12/20 07:57:42;;;;;;;11.63;7.50;;;;;;;;;;5057393;28;20037;-79
2022/12/20 08:00:08;;;;;;;12.02;7.20;;;;;;;;;;5058030;28;20094;-79
2022/12/20 08:03:01;;;;;;;13.27;7.05;;;;;;;;;;5057585;28;20126;-79
2022/12/20 08:05:27;;;;;;;9.75;6.85;;;;;;;;;;5056900;28;20081;-77
2022/12/20 08:07:55;;;;;;;12.20;6.72;;;;;;;;;;5057616;28;20094;-77
2022/12/20 08:10:21;;;;;;;9.98;6.75;;;;;;;;;;5057676;28;20033;-77
2022/12/20 08:12:48;;;;;;;12.13;6.28;;;;;;;;;;5057445;28;20221;-78
2022/12/20 08:15:14;;;;;;;13.10;6.60;;;;;;;;;;5057618;28;20052;-77
2022/12/20 08:17:40;;;;;;;9.57;6.18;;;;;;;;;;5057321;28;20051;-77
2022/12/20 08:20:08;;;;;;;8.95;5.78;;;;;;;;;;5057947;28;20120;-77
2022/12/20 08:22:34;;;;;;;8.75;5.47;;;;;;;;;;5056820;28;20052;-76
2022/12/20 08:25:01;;;;;;;7.25;5.10;;;;;;;;;;5053017;28;20135;-77
2022/12/20 08:27:27;;;;;;;9.13;4.97;;;;;;;;;;5054389;28;20044;-77
2022/12/20 08:29:53;;;;;;;9.48;5.28;;;;;;;;;;5037634;28;20080;-77
2022/12/20 08:32:19;;;;;;;7.88;5.30;;;;;;;;;;5037388;28;20077;-77
2022/12/20 08:34:47;;;;;;;7.78;5.15;;;;;;;;;;5037256;28;20045;-77
2022/12/20 08:37:15;;;;;;;6.53;4.60;;;;;;;;;;5054340;28;20048;-78
2022/12/20 08:39:41;;;;;;;6.93;4.43;;;;;;;;;;5055322;28;20071;-77
2022/12/20 08:42:07;;;;;;;7.60;4.40;;;;;;;;;;5054001;28;20047;-77
2022/12/20 08:44:33;;;;;;;5.97;3.88;;;;;;;;;;5053659;28;20037;-77
2022/12/20 08:46:59;;;;;;;6.55;4.20;;;;;;;;;;5037094;28;20043;-77
2022/12/20 08:49:25;;;;;;;7.05;4.30;;;;;;;;;;5054016;28;20505;-77
2022/12/20 08:51:51;;;;;;;7.45;3.78;;;;;;;;;;5053675;28;20041;-77
2022/12/20 08:54:17;;;;;;;7.13;4.10;;;;;;;;;;5053975;28;20033;-77
2022/12/20 08:56:43;;;;;;;6.13;4.22;;;;;;;;;;5053458;28;20102;-78
2022/12/20 08:59:09;;;;;;;5.78;4.05;;;;;;;;;;5054003;28;20048;-77
2022/12/20 09:01:35;;;;;;;6.88;3.60;;;;;;;;;;5055028;28;20179;-77
2022/12/20 09:04:01;;;;;;;7.75;3.60;;;;;;;;;;5053809;28;20036;-78
2022/12/20 09:06:27;;;;;;;9.85;4.03;;;;;;;;;;5033939;28;20497;-77
2022/12/20 09:08:54;;;;;;;6.18;4.07;;;;;;;;;;5044386;28;20048;-77
2022/12/20 09:11:24;;;;;;;9.82;4.18;;;;;;;;;;5053323;28;20116;-77
2022/12/20 09:13:52;;;;;;;7.00;3.65;;;;;;;;;;5053288;28;20482;-77
2022/12/20 09:16:20;;;;;;;5.97;3.25;;;;;;;;;;5053177;28;20052;-77
2022/12/20 09:18:49;;;;;;;6.32;3.40;;;;;;;;;;5052945;28;20049;-77
2022/12/20 09:21:16;;;;;;;6.13;2.97;;;;;;;;;;5053189;28;20091;-79
2022/12/20 09:23:42;;;;;;;5.40;3.10;;;;;;;;;;5053253;28;20049;-78
2022/12/20 09:26:13;;;;;;;8.38;3.60;;;;;;;;;;5036652;28;20048;-77
2022/12/20 09:28:39;;;;;;;7.80;3.15;;;;;;;;;;5039307;28;20124;-77
2022/12/20 09:31:06;;;;;;;5.60;3.33;;;;;;;;;;5054275;28;20037;-77
2022/12/20 09:33:33;;;;;;;6.35;3.63;;;;;;;;;;5053367;28;20389;-77
2022/12/20 09:36:00;;;;;;;9.02;3.50;;;;;;;;;;5054262;28;20053;-77
2022/12/20 09:38:27;;;;;;;7.93;3.70;;;;;;;;;;5053220;28;20509;-77
2022/12/20 09:40:55;;;;;;;6.00;3.83;;;;;;;;;;5052445;28;20052;-77
2022/12/20 09:43:21;;;;;;;8.40;3.78;;;;;;;;;;5051558;28;20045;-77
2022/12/20 09:45:50;;;;;;;8.10;3.65;;;;;;;;;;5039753;28;20047;-77
2022/12/20 09:48:18;;;;;;;6.82;3.67;;;;;;;;;;5052724;28;20112;-77
2022/12/20 09:50:47;;;;;;;7.60;3.67;;;;;;;;;;5052374;28;20044;-77
2022/12/20 09:53:28;;;;;;;5.40;3.53;;;;;;;;;;5052500;28;20060;-77
2022/12/20 09:55:58;;;;;;;8.02;3.58;;;;;;;;;;5052758;28;20041;-77
2022/12/20 09:58:33;;;;;;;7.13;3.72;;;;;;;;;;5052758;28;20499;-77
2022/12/20 10:01:10;;;;;;;6.63;3.63;;;;;;;;;;5052277;28;20045;-77
2022/12/20 10:03:36;;;;;;;7.72;3.85;;;;;;;;;;5052621;28;20048;-77
2022/12/20 10:06:21;;;;;;;8.63;3.65;;;;;;;;;;5052067;28;20521;-77
2022/12/20 10:08:55;;;;;;;7.35;3.47;;;;;;;;;;5052235;28;20460;-78
2022/12/20 10:11:27;;;;;;;7.63;3.88;;;;;;;;;;5052303;28;20045;-78
2022/12/20 10:14:07;;;;;;;6.72;3.40;;;;;;;;;;5053129;28;20036;-78
2022/12/20 10:16:41;;;;;;;5.68;3.53;;;;;;;;;;5052150;28;20041;-78
2022/12/20 10:19:19;;;;;;;6.80;3.53;;;;;;;;;;5052388;28;20048;-78
2022/12/20 10:21:55;;;;;;;6.40;3.65;;;;;;;;;;5053630;28;20024;-78
2022/12/20 10:24:30;;;;;;;6.63;3.30;;;;;;;;;;5052157;28;20510;-78
2022/12/20 10:26:57;;;;;;;10.00;3.90;;;;;;;;;;5052191;28;20077;-78
2022/12/20 10:29:23;;;;;;;6.70;3.63;;;;;;;;;;5052264;28;20041;-79
2022/12/20 10:31:52;;;;;;;8.88;3.88;;;;;;;;;;5052060;28;20128;-78
2022/12/20 10:34:18;;;;;;;10.25;3.88;;;;;;;;;;5053384;28;20509;-78
2022/12/20 10:36:44;;;;;;;7.95;3.80;;;;;;;;;;5051772;28;20040;-78
2022/12/20 10:39:10;;;;;;;7.13;3.88;;;;;;;;;;5052268;28;20107;-78
2022/12/20 10:41:39;;;;;;;7.45;3.42;;;;;;;;;;5035457;28;20048;-78
2022/12/20 10:44:16;;;;;;;8.48;3.75;;;;;;;;;;5052049;28;20474;-78
2022/12/20 10:46:59;;;;;;;6.82;3.67;;;;;;;;;;5051326;28;20080;-79
2022/12/20 10:49:30;;;;;;;8.45;3.88;;;;;;;;;;5052763;28;20102;-78
2022/12/20 10:51:58;;;;;;;8.32;4.03;;;;;;;;;;5051806;28;20068;-78
2022/12/20 10:54:45;;;;;;;6.25;4.03;;;;;;;;;;5051512;28;20036;-79
2022/12/20 10:57:22;;;;;;;5.78;3.78;;;;;;;;;;5084952;28;20045;-79
2022/12/20 10:59:52;;;;;;;6.47;3.78;;;;;;;;;;5051588;28;20520;-78
2022/12/20 11:02:28;;;;;;;6.07;3.70;;;;;;;;;;5035028;28;20099;-79
2022/12/20 11:05:09;;;;;;;6.13;3.70;;;;;;;;;;5051230;28;20041;-79
2022/12/20 11:07:36;;;;;;;6.25;3.65;;;;;;;;;;5051546;28;20088;-79
2022/12/20 11:10:19;;;;;;;8.07;3.83;;;;;;;;;;5051204;28;20068;-79
2022/12/20 11:13:12;;;;;;;8.43;3.85;;;;;;;;;;5051336;28;20095;-78
2022/12/20 11:15:47;;;;;;;5.90;3.60;;;;;;;;;;5077163;28;20052;-78
2022/12/20 11:18:40;;;;;;;7.38;3.72;;;;;;;;;;5051800;28;20484;-78
2022/12/20 11:21:06;;;;;;;9.65;3.95;;;;;;;;;;5033631;28;20055;-78
2022/12/20 11:23:41;;;;;;;5.75;4.13;;;;;;;;;;5037347;28;20053;-78
2022/12/20 11:26:07;;;;;;;9.25;4.35;;;;;;;;;;5051241;28;20049;-79
2022/12/20 11:28:48;;;;;;;7.00;4.05;;;;;;;;;;5051527;28;20090;-79
2022/12/20 11:31:14;;;;;;;7.00;4.05;;;;;;;;;;5068057;28;20037;-78
2022/12/20 11:33:55;;;;;;;7.63;4.18;;;;;;;;;;5051016;28;20036;-78
2022/12/20 11:36:31;;;;;;;9.55;4.40;;;;;;;;;;5051322;28;20056;-78
2022/12/20 11:39:00;;;;;;;7.57;4.05;;;;;;;;;;5038017;28;20052;-78
2022/12/20 11:41:35;;;;;;;7.03;4.47;;;;;;;;;;5051713;28;20498;-78
2022/12/20 11:44:24;;;;;;;7.78;4.28;;;;;;;;;;5051017;28;20041;-79
2022/12/20 11:46:56;;;;;;;6.07;4.35;;;;;;;;;;5051067;28;20532;-78
2022/12/20 11:49:31;;;;;;;8.95;4.75;;;;;;;;;;5034566;28;20033;-78
2022/12/20 11:52:12;;;;;;;7.72;4.60;;;;;;;;;;5050831;28;20116;-78
2022/12/20 11:54:43;;;;;;;6.80;4.55;;;;;;;;;;5051300;28;20065;-79
2022/12/20 11:57:29;;;;;;;8.23;5.40;;;;;;;;;;5050738;28;20126;-78
2022/12/20 12:00:01;;;;;;;8.95;5.55;;;;;;;;;;5054427;28;20170;-78
2022/12/20 12:02:37;;;;;;;6.55;4.88;;;;;;;;;;5054859;28;20524;-78
2022/12/20 12:05:05;;;;;;;10.07;5.68;;;;;;;;;;5054442;28;20048;-79
2022/12/20 12:07:33;;;;;;;8.90;5.90;;;;;;;;;;5054570;28;20056;-78
2022/12/20 12:10:05;;;;;;;8.93;5.78;;;;;;;;;;5054606;28;20375;-78
2022/12/20 12:12:40;;;;;;;9.38;6.20;;;;;;;;;;5054275;28;20041;-78
2022/12/20 12:15:26;;;;;;;10.50;5.90;;;;;;;;;;5040794;28;20048;-78
2022/12/20 12:18:14;;;;;;;13.52;6.43;;;;;;;;;;5054705;28;20280;-78
2022/12/20 12:20:49;;;;;;;9.32;6.20;;;;;;;;;;5054616;28;20097;-78
2022/12/20 12:23:21;;;;;;;8.95;6.18;;;;;;;;;;5054272;28;20053;-78
2022/12/20 12:25:48;;;;;;;9.85;6.10;;;;;;;;;;5054400;28;20591;-79
2022/12/20 12:28:14;;;;;;;9.90;6.28;;;;;;;;;;5054168;28;20402;-79
2022/12/20 12:30:43;;;;;;;9.00;6.32;;;;;;;;;;5054242;28;20037;-79
2022/12/20 12:33:14;;;;;;;11.18;7.00;;;;;;;;;;5054271;28;20048;-79
2022/12/20 12:35:46;;;;;;;10.48;6.47;;;;;;;;;;5054065;28;20049;-79
2022/12/20 12:38:31;;;;;;;9.63;6.65;;;;;;;;;;5037537;28;20041;-78
2022/12/20 12:41:05;;;;;;;9.45;6.70;;;;;;;;;;5054130;28;20123;-78
2022/12/20 12:43:49;;;;;;;10.10;6.75;;;;;;;;;;5053759;28;20048;-79
2022/12/20 12:46:28;;;;;;;10.63;7.15;;;;;;;;;;5037207;28;20511;-79
2022/12/20 12:48:54;;;;;;;8.68;6.60;;;;;;;;;;5055244;28;20033;-79
2022/12/20 12:51:28;;;;;;;9.50;7.00;;;;;;;;;;5053639;28;20072;-77
2022/12/20 12:54:03;;;;;;;13.10;7.40;;;;;;;;;;5054061;28;20033;-77
2022/12/20 12:56:30;;;;;;;8.85;6.55;;;;;;;;;;5037415;28;20063;-77
2022/12/20 12:59:05;;;;;;;11.52;7.82;;;;;;;;;;5054034;28;20500;-77
2022/12/20 13:01:41;;;;;;;11.13;7.13;;;;;;;;;;5037240;28;20485;-78
2022/12/20 13:04:21;;;;;;;14.50;8.05;;;;;;;;;;5054779;28;20048;-77
2022/12/20 13:06:48;;;;;;;11.30;7.35;;;;;;;;;;5053720;28;20379;-77
2022/12/20 13:09:26;;;;;;;10.63;7.13;;;;;;;;;;5052789;28;20115;-77
2022/12/20 13:11:54;;;;;;;11.18;8.02;;;;;;;;;;5053890;28;20041;-77
2022/12/20 13:14:23;;;;;;;12.63;7.25;;;;;;;;;;5053826;28;20124;-77
2022/12/20 13:16:53;;;;;;;13.07;7.97;;;;;;;;;;5053248;28;20099;-77
2022/12/20 13:19:25;;;;;;;13.15;8.18;;;;;;;;;;5053039;28;20040;-77
2022/12/20 13:21:58;;;;;;;12.15;8.02;;;;;;;;;;5052982;28;20044;-77
2022/12/20 13:24:47;;;;;;;15.15;8.60;;;;;;;;;;5052619;28;20057;-77
2022/12/20 13:27:17;;;;;;;11.45;8.27;;;;;;;;;;5034694;28;20064;-77
2022/12/20 13:30:01;;;;;;;11.63;8.98;;;;;;;;;;5053315;28;20051;-77
2022/12/20 13:32:46;;;;;;;12.43;8.40;;;;;;;;;;5052615;28;20044;-77
2022/12/20 13:35:24;;;;;;;10.85;8.30;;;;;;;;;;5052907;28;20045;-77
2022/12/20 13:38:09;;;;;;;12.45;8.77;;;;;;;;;;5052728;28;20124;-77
2022/12/20 13:40:35;;;;;;;13.95;9.23;;;;;;;;;;5072445;28;20037;-77
2022/12/20 13:43:16;;;;;;;12.95;9.27;;;;;;;;;;5053142;28;20575;-77
2022/12/20 13:45:45;;;;;;;15.43;8.98;;;;;;;;;;5039319;28;20063;-77
2022/12/20 13:48:16;;;;;;;14.50;9.38;;;;;;;;;;5052460;28;20041;-77
2022/12/20 13:50:49;;;;;;;14.18;9.88;;;;;;;;;;5052613;28;20127;-77
2022/12/20 13:53:17;;;;;;;14.18;9.85;;;;;;;;;;5052420;28;20041;-78
2022/12/20 13:55:44;;;;;;;13.80;9.95;;;;;;;;;;5035752;28;20056;-78
2022/12/20 13:58:18;;;;;;;11.77;9.48;;;;;;;;;;5052452;28;20048;-77
2022/12/20 14:00:44;;;;;;;13.88;9.35;;;;;;;;;;5036103;28;20041;-78
2022/12/20 14:03:20;;;;;;;14.23;10.20;;;;;;;;;;5052365;28;20044;-78
2022/12/20 14:05:46;;;;;;;17.08;10.90;;;;;;;;;;5052268;28;20041;-78
2022/12/20 14:08:20;;;;;;;15.43;10.52;;;;;;;;;;5052288;28;20045;-78
2022/12/20 14:10:46;;;;;;;15.05;10.98;;;;;;;;;;5052114;28;20119;-78
2022/12/20 14:13:18;;;;;;;14.30;10.90;;;;;;;;;;5053295;28;20045;-78
2022/12/20 14:15:44;;;;;;;13.35;10.57;;;;;;;;;;5052026;28;20045;-78
2022/12/20 14:18:16;;;;;;;14.57;10.48;;;;;;;;;;5052128;28;20094;-78
2022/12/20 14:20:43;;;;;;;14.93;11.35;;;;;;;;;;5052000;28;20123;-78
2022/12/20 14:23:14;;;;;;;21.85;13.32;;;;;;;;;;5051006;28;20056;-77
2022/12/20 14:25:48;;;;;;;15.85;11.98;;;;;;;;;;5035537;28;20099;-78
2022/12/20 14:28:18;;;;;;;19.15;12.20;;;;;;;;;;5052033;28;20482;-78
2022/12/20 14:30:44;;;;;;;20.90;13.25;;;;;;;;;;5052265;28;20048;-78
2022/12/20 14:33:18;;;;;;;19.02;13.02;;;;;;;;;;5051813;28;20079;-78
2022/12/20 14:35:47;;;;;;;19.25;13.65;;;;;;;;;;5051721;28;20387;-78
2022/12/20 14:38:20;;;;;;;16.20;12.88;;;;;;;;;;5051782;28;20045;-78
2022/12/20 14:40:46;;;;;;;19.13;13.35;;;;;;;;;;5053090;28;20041;-78
2022/12/20 14:43:15;;;;;;;18.33;13.38;;;;;;;;;;5051979;28;20041;-78
2022/12/20 14:45:42;;;;;;;20.38;14.10;;;;;;;;;;5051451;28;20052;-78
2022/12/20 14:48:15;;;;;;;19.65;14.88;;;;;;;;;;5051462;28;20041;-78
2022/12/20 14:50:50;;;;;;;23.55;14.70;;;;;;;;;;5051813;28;20029;-78
2022/12/20 14:53:24;;;;;;;21.00;14.50;;;;;;;;;;5052235;28;20041;-78
2022/12/20 14:55:50;;;;;;;22.50;14.82;;;;;;;;;;5051884;28;20053;-78
2022/12/20 14:58:24;;;;;;;24.38;15.93;;;;;;;;;;5051663;28;20045;-79